Terminal Aerodrome Forecast
Issued by NWS Nashville, TN

Home | Current Version | Previous Version | Text Only | Print | Product List | Glossary On
Versions: 1 2 3 4 5 6 7 8 9 10 11 12
399
FTUS44 KOHX 031720
TAFBNA
TAF
KBNA 031720Z 0318/0418 08005KT P6SM OVC120
     FM040300 05005KT 6SM -RA OVC070
     FM040800 08005KT 5SM -RA OVC015=

USA.gov is the U.S. government's official web portal to all federal, state and local government web resources and services.